Sunny Side, Texas
Current Conditions -  °F | °C
As of 6:35 PM on Thursday 18 Dec 2014 (Local Time) from KTME Reporting Station
Overcast Overcast  
Wind Chill: 64°   Ceiling: 2000
Heat Index: 64°   Visibility: 10mi
Dew Point: 59°   Wind: 7mph
Humidity: 83%   Direction: 30°NNE
Pressure: 30.05"   Gusts: NA
Location:  29.8217°N, 95.9894°W
Report Text: KTME 190035Z AUTO 03006KT 10SM OVC020 18/15 A3005 RMK AO2
Loading
Personal Weather Stations






























Interactive Weather Map New forecast layout! Learn more

10-Day Weather Forecast

Advertisements
Track Severe Weather on mobile